createdAt,value
2018-03-19T00:00:44.944Z,8.90
2018-03-19T00:03:13.978Z,11.30
2018-03-19T00:05:42.886Z,11.33
2018-03-19T00:08:11.439Z,6.73
2018-03-19T00:10:40.139Z,10.40
2018-03-19T00:13:09.003Z,12.47
2018-03-19T00:15:37.966Z,18.50
2018-03-19T00:18:07.043Z,7.63
2018-03-19T00:20:36.086Z,9.20
2018-03-19T00:23:05.254Z,10.00
2018-03-19T00:25:33.927Z,10.23
2018-03-19T00:28:03.258Z,9.33
2018-03-19T00:30:31.945Z,13.57
2018-03-19T00:33:01.384Z,10.70
2018-03-19T00:35:29.938Z,10.33
2018-03-19T00:37:58.396Z,12.37
2018-03-19T00:40:27.801Z,12.63
2018-03-19T00:42:56.758Z,11.77
2018-03-19T00:45:25.767Z,9.53
2018-03-19T00:47:54.517Z,12.67
2018-03-19T00:50:23.660Z,11.47
2018-03-19T00:52:52.365Z,8.90
2018-03-19T00:55:21.749Z,7.60
2018-03-19T00:57:50.370Z,19.23
2018-03-19T01:00:19.093Z,9.90
2018-03-19T01:02:47.843Z,8.23
2018-03-19T01:05:16.740Z,14.57
2018-03-19T01:07:45.382Z,12.53
2018-03-19T01:10:14.810Z,10.80
2018-03-19T01:12:43.568Z,9.07
2018-03-19T01:15:12.374Z,9.23
2018-03-19T01:17:41.269Z,8.53
2018-03-19T01:20:10.645Z,10.50
2018-03-19T01:22:39.213Z,16.00
2018-03-19T01:25:08.074Z,8.80
2018-03-19T01:27:36.735Z,10.10
2018-03-19T01:30:05.311Z,12.77
2018-03-19T01:32:34.369Z,13.90
2018-03-19T01:35:03.042Z,15.80
2018-03-19T01:37:31.733Z,14.90
2018-03-19T01:40:00.541Z,11.13
2018-03-19T01:42:29.266Z,13.10
2018-03-19T01:44:58.319Z,10.73
2018-03-19T01:47:27.376Z,12.83
2018-03-19T01:49:56.199Z,10.03
2018-03-19T01:55:33.855Z,13.93
2018-03-19T01:58:02.418Z,13.73
2018-03-19T02:00:30.812Z,12.87
2018-03-19T02:02:59.617Z,15.90
2018-03-19T02:05:28.382Z,11.60
2018-03-19T02:07:56.875Z,15.83
2018-03-19T02:10:25.649Z,15.43
2018-03-19T02:12:54.041Z,17.43
2018-03-19T02:15:22.417Z,14.60
2018-03-19T02:17:50.820Z,11.10
2018-03-19T02:20:19.197Z,12.90
2018-03-19T02:22:47.601Z,11.60
2018-03-19T02:25:16.334Z,11.43
2018-03-19T02:27:44.734Z,15.37
2018-03-19T02:30:13.506Z,9.60
2018-03-19T02:32:41.932Z,15.37
2018-03-19T02:35:10.309Z,15.87
2018-03-19T02:37:38.717Z,13.73
2018-03-19T02:40:07.179Z,16.20
2018-03-19T02:42:35.609Z,9.63
2018-03-19T02:45:04.440Z,14.17
2018-03-19T02:47:32.805Z,11.63
2018-03-19T02:50:01.176Z,11.73
2018-03-19T02:52:29.564Z,11.30
2018-03-19T02:54:57.941Z,19.03
2018-03-19T02:57:26.768Z,18.50
2018-03-19T02:59:56.938Z,9.23
2018-03-19T03:02:25.749Z,14.70
2018-03-19T03:04:54.115Z,30.17
2018-03-19T03:07:22.498Z,11.80
2018-03-19T03:09:50.930Z,17.67
2018-03-19T03:12:19.290Z,15.37
2018-03-19T03:14:47.645Z,10.37
2018-03-19T03:17:16.154Z,9.83
2018-03-19T03:19:44.775Z,8.77
2018-03-19T03:22:13.196Z,13.23
2018-03-19T03:24:41.557Z,10.90
2018-03-19T03:27:09.935Z,7.83
2018-03-19T03:29:38.280Z,9.13
2018-03-19T03:32:06.673Z,11.07
2018-03-19T03:34:35.113Z,17.43
2018-03-19T03:37:03.490Z,14.27
2018-03-19T03:39:31.858Z,9.33
2018-03-19T03:42:00.235Z,15.30
2018-03-19T03:44:28.617Z,16.10
2018-03-19T03:46:57.002Z,10.13
2018-03-19T03:49:25.408Z,11.03
2018-03-19T03:51:53.852Z,11.33
2018-03-19T03:54:22.241Z,12.50
2018-03-19T03:56:50.846Z,10.27
2018-03-19T03:59:19.221Z,10.53
2018-03-19T04:01:47.582Z,9.23
2018-03-19T04:04:15.959Z,11.67
2018-03-19T04:06:44.353Z,13.07
2018-03-19T04:09:12.752Z,9.40
2018-03-19T04:11:41.180Z,7.67
2018-03-19T04:14:09.600Z,8.27
2018-03-19T04:16:38.391Z,15.00
2018-03-19T04:19:06.776Z,9.63
2018-03-19T04:21:35.149Z,11.00
2018-03-19T04:24:03.552Z,11.20
2018-03-19T04:26:31.948Z,12.17
2018-03-19T04:29:00.336Z,10.37
2018-03-19T04:31:28.728Z,11.73
2018-03-19T04:33:57.112Z,10.87
2018-03-19T04:36:25.530Z,16.90
2018-03-19T04:38:53.930Z,13.97
2018-03-19T04:41:22.326Z,13.47
2018-03-19T04:43:51.004Z,13.93
2018-03-19T04:46:20.744Z,12.80
2018-03-19T04:48:49.134Z,10.23
2018-03-19T04:51:17.516Z,10.40
2018-03-19T04:56:20.789Z,15.73
2018-03-19T04:58:49.187Z,10.80
2018-03-19T05:01:17.546Z,9.97
2018-03-19T05:03:46.414Z,8.30
2018-03-19T05:06:15.223Z,8.33
2018-03-19T05:08:43.735Z,9.03
2018-03-19T05:11:12.114Z,13.93
2018-03-19T05:13:40.488Z,14.30
2018-03-19T05:16:08.910Z,9.00
2018-03-19T05:18:37.438Z,18.70
2018-03-19T05:21:05.929Z,15.83
2018-03-19T05:23:34.375Z,12.47
2018-03-19T05:26:02.757Z,14.80
2018-03-19T05:28:31.145Z,13.07
2018-03-19T05:30:59.560Z,10.57
2018-03-19T05:33:28.821Z,10.47
2018-03-19T05:35:57.196Z,10.30
2018-03-19T05:38:25.985Z,17.10
2018-03-19T05:40:54.372Z,14.77
2018-03-19T05:43:22.759Z,10.03
2018-03-19T05:45:51.130Z,14.43
2018-03-19T05:48:19.550Z,13.60
2018-03-19T05:50:48.016Z,20.90
2018-03-19T05:53:16.416Z,14.30
2018-03-19T05:55:44.830Z,13.87
2018-03-19T05:58:13.292Z,24.97
2018-03-19T06:00:41.770Z,21.63
2018-03-19T06:03:10.127Z,17.37
2018-03-19T06:05:38.556Z,24.27
2018-03-19T06:08:06.944Z,20.83
2018-03-19T06:10:35.376Z,15.13
2018-03-19T06:13:03.808Z,16.93
2018-03-19T06:15:32.211Z,22.40
2018-03-19T06:18:00.575Z,23.87
2018-03-19T06:20:29.025Z,16.60
2018-03-19T06:22:57.403Z,22.57
2018-03-19T06:25:26.340Z,17.50
2018-03-19T06:27:54.752Z,16.80
2018-03-19T06:30:23.168Z,17.30
2018-03-19T06:32:51.644Z,20.80
2018-03-19T06:35:20.106Z,22.90
2018-03-19T06:40:23.193Z,22.83
2018-03-19T06:42:51.677Z,17.20
2018-03-19T06:45:20.189Z,17.33
2018-03-19T06:47:48.741Z,29.10
2018-03-19T06:50:17.351Z,20.57
2018-03-19T06:52:46.098Z,23.47
2018-03-19T06:55:14.600Z,20.10
2018-03-19T06:57:43.202Z,17.23
2018-03-19T07:00:12.132Z,17.60
2018-03-19T07:02:40.889Z,25.70
2018-03-19T07:05:09.285Z,27.03
2018-03-19T07:07:37.704Z,11.90
2018-03-19T07:10:06.230Z,18.60
2018-03-19T07:12:34.887Z,11.60
2018-03-19T07:15:03.321Z,16.03
2018-03-19T07:17:31.849Z,12.50
2018-03-19T07:20:00.569Z,12.40
2018-03-19T07:22:29.047Z,13.50
2018-03-19T07:24:57.544Z,14.53
2018-03-19T07:27:25.999Z,14.77
2018-03-19T07:29:54.682Z,14.73
2018-03-19T07:32:24.216Z,21.80
2018-03-19T07:34:52.797Z,19.47
2018-03-19T07:37:21.277Z,14.47
2018-03-19T07:39:49.711Z,12.47
2018-03-19T07:42:18.142Z,15.20
2018-03-19T07:44:46.658Z,14.50
2018-03-19T07:47:15.087Z,14.03
2018-03-19T07:49:43.604Z,16.50
2018-03-19T07:52:12.265Z,11.10
2018-03-19T07:54:40.739Z,21.50
2018-03-19T07:57:09.153Z,15.37
2018-03-19T07:59:37.886Z,13.13
2018-03-19T08:02:06.365Z,14.30
2018-03-19T08:04:34.865Z,15.27
2018-03-19T08:07:04.344Z,21.63
2018-03-19T08:09:32.835Z,11.17
2018-03-19T08:12:01.384Z,11.53
2018-03-19T08:14:30.079Z,21.20
2018-03-19T08:16:58.553Z,17.00
2018-03-19T08:19:27.780Z,10.47
2018-03-19T08:21:56.244Z,18.30
2018-03-19T08:24:24.840Z,9.70
2018-03-19T08:27:06.436Z,14.27
2018-03-19T08:29:34.956Z,9.97
2018-03-19T08:32:03.359Z,8.30
2018-03-19T08:34:31.817Z,11.57
2018-03-19T08:37:00.352Z,12.43
2018-03-19T08:39:28.826Z,7.70
2018-03-19T08:41:57.327Z,10.00
2018-03-19T08:44:25.718Z,9.83
2018-03-19T08:46:54.387Z,8.43
2018-03-19T08:49:22.898Z,7.43
2018-03-19T08:51:51.427Z,7.70
2018-03-19T08:54:21.145Z,16.13
2018-03-19T08:56:49.553Z,9.00
2018-03-19T08:59:18.283Z,6.83
2018-03-19T09:01:46.724Z,7.57
2018-03-19T09:04:15.354Z,6.43
2018-03-19T09:06:44.268Z,9.63
2018-03-19T09:09:12.781Z,6.53
2018-03-19T09:11:41.224Z,6.60
2018-03-19T09:14:09.877Z,8.23
2018-03-19T09:16:38.343Z,6.20
2018-03-19T09:19:06.837Z,17.53
2018-03-19T09:21:35.251Z,9.97
2018-03-19T09:24:03.669Z,9.10
2018-03-19T09:26:32.052Z,6.50
2018-03-19T09:29:00.476Z,9.60
2018-03-19T09:31:28.947Z,5.77
2018-03-19T09:33:57.371Z,4.90
2018-03-19T09:36:25.777Z,8.33
2018-03-19T09:38:54.218Z,10.63
2018-03-19T09:41:22.658Z,6.63
2018-03-19T09:43:51.325Z,7.17
2018-03-19T09:46:19.814Z,6.90
2018-03-19T09:48:49.041Z,5.97
2018-03-19T09:51:20.228Z,13.23
2018-03-19T09:53:48.719Z,5.47
2018-03-19T09:56:17.149Z,6.60
2018-03-19T09:58:45.589Z,11.00
2018-03-19T10:01:14.041Z,5.83
2018-03-19T10:03:42.474Z,5.63
2018-03-19T10:06:10.924Z,7.10
2018-03-19T10:08:39.522Z,7.63
2018-03-19T10:11:07.996Z,5.23
2018-03-19T10:13:36.720Z,5.83
2018-03-19T10:16:05.478Z,8.03
2018-03-19T10:18:34.506Z,5.83
2018-03-19T10:21:03.004Z,7.63
2018-03-19T10:23:31.448Z,5.47
2018-03-19T10:25:59.864Z,7.80
2018-03-19T10:28:28.276Z,6.27
2018-03-19T10:30:57.264Z,6.27
2018-03-19T10:33:25.711Z,19.97
2018-03-19T10:35:54.166Z,7.03
2018-03-19T10:38:22.709Z,5.77
2018-03-19T10:40:51.340Z,6.13
2018-03-19T10:43:20.166Z,5.57
2018-03-19T10:45:48.619Z,7.50
2018-03-19T10:48:17.168Z,8.30
2018-03-19T10:50:45.564Z,5.10
2018-03-19T10:53:14.198Z,5.97
2018-03-19T10:55:42.844Z,5.93
2018-03-19T10:58:11.545Z,8.83
2018-03-19T11:00:39.949Z,14.60
2018-03-19T11:03:08.844Z,6.23
2018-03-19T11:05:42.829Z,6.03
2018-03-19T11:08:11.314Z,9.17
2018-03-19T11:10:39.774Z,5.37
2018-03-19T11:13:08.211Z,5.90
2018-03-19T11:15:36.638Z,6.50
2018-03-19T11:18:05.295Z,10.30
2018-03-19T11:20:33.792Z,5.63
2018-03-19T11:23:02.416Z,5.43
2018-03-19T11:25:31.099Z,6.57
2018-03-19T11:27:59.567Z,6.63
2018-03-19T11:30:28.049Z,6.13
2018-03-19T11:32:56.460Z,6.37
2018-03-19T11:35:25.049Z,4.83
2018-03-19T11:37:53.672Z,11.00
2018-03-19T11:40:22.140Z,6.80
2018-03-19T11:42:50.525Z,4.87
2018-03-19T11:45:18.974Z,6.33
2018-03-19T11:47:48.249Z,6.53
2018-03-19T11:50:16.630Z,6.73
2018-03-19T11:52:46.422Z,7.90
2018-03-19T11:55:15.124Z,5.47
2018-03-19T11:57:43.503Z,5.47
2018-03-19T12:00:12.113Z,4.70
2018-03-19T12:02:40.491Z,5.27
2018-03-19T12:05:08.898Z,5.27
2018-03-19T12:07:37.602Z,10.10
2018-03-19T12:10:05.990Z,4.40
2018-03-19T12:12:34.656Z,4.50
2018-03-19T12:15:03.101Z,8.40
2018-03-19T12:17:31.588Z,5.67
2018-03-19T12:20:00.809Z,4.53
2018-03-19T12:22:29.316Z,6.40
2018-03-19T12:24:57.810Z,5.10
2018-03-19T12:27:26.272Z,6.53
2018-03-19T12:29:54.882Z,5.07
2018-03-19T12:32:23.425Z,4.60
2018-03-19T12:34:51.939Z,4.27
2018-03-19T12:37:20.371Z,3.70
2018-03-19T12:39:48.751Z,4.77
2018-03-19T12:42:17.388Z,4.60
2018-03-19T12:44:45.814Z,4.70
2018-03-19T12:47:14.242Z,4.73
2018-03-19T12:49:42.802Z,5.30
2018-03-19T12:52:11.295Z,7.87
2018-03-19T12:54:40.898Z,5.67
2018-03-19T12:57:09.337Z,5.70
2018-03-19T12:59:37.725Z,5.33
2018-03-19T13:02:06.536Z,5.60
2018-03-19T13:04:34.998Z,6.50
2018-03-19T13:07:03.975Z,5.77
2018-03-19T13:09:32.631Z,8.00
2018-03-19T13:12:01.389Z,4.90
2018-03-19T13:14:29.843Z,6.97
2018-03-19T13:16:58.318Z,4.40
2018-03-19T13:19:27.185Z,7.27
2018-03-19T13:21:56.128Z,5.10
2018-03-19T13:24:24.936Z,5.23
2018-03-19T13:26:53.658Z,5.77
2018-03-19T13:29:22.098Z,5.30
2018-03-19T13:31:50.578Z,5.13
2018-03-19T13:34:19.304Z,5.47
2018-03-19T13:36:47.996Z,6.10
2018-03-19T13:39:16.381Z,5.10
2018-03-19T13:41:44.833Z,5.40
2018-03-19T13:44:13.211Z,6.13
2018-03-19T13:46:41.620Z,5.07
2018-03-19T13:49:10.345Z,6.03
2018-03-19T13:51:39.004Z,6.03
2018-03-19T13:54:07.415Z,5.80
2018-03-19T13:56:36.059Z,11.07
2018-03-19T13:59:04.477Z,5.60
2018-03-19T14:01:32.964Z,8.87
2018-03-19T14:04:01.340Z,5.97
2018-03-19T14:06:30.063Z,5.87
2018-03-19T14:08:58.749Z,5.00
2018-03-19T14:11:27.143Z,8.53
2018-03-19T14:13:55.653Z,8.43
2018-03-19T14:16:24.086Z,5.30
2018-03-19T14:18:52.485Z,5.73
2018-03-19T14:21:20.967Z,6.27
2018-03-19T14:23:49.340Z,5.00
2018-03-19T14:26:17.742Z,7.00
2018-03-19T14:28:46.129Z,5.97
2018-03-19T14:31:14.956Z,8.07
2018-03-19T14:33:43.536Z,6.63
2018-03-19T14:36:11.997Z,6.27
2018-03-19T14:38:40.537Z,7.33
2018-03-19T14:41:08.988Z,5.43
2018-03-19T14:43:37.373Z,6.93
2018-03-19T14:46:06.180Z,6.07
2018-03-19T14:48:34.584Z,6.37
2018-03-19T14:51:03.438Z,7.90
2018-03-19T14:53:32.050Z,5.93
2018-03-19T14:56:00.452Z,6.40
2018-03-19T14:58:29.484Z,8.57
2018-03-19T15:00:57.989Z,6.50
2018-03-19T15:03:26.681Z,6.50
2018-03-19T15:05:55.104Z,5.67
2018-03-19T15:08:23.621Z,6.40
2018-03-19T15:10:52.234Z,8.23
2018-03-19T15:13:20.901Z,7.07
2018-03-19T15:15:49.267Z,21.17
2018-03-19T15:18:17.651Z,14.93
2018-03-19T15:20:46.148Z,18.13
2018-03-19T15:23:14.520Z,10.83
2018-03-19T15:25:46.666Z,13.97
2018-03-19T15:28:15.090Z,7.37
2018-03-19T15:30:43.525Z,8.40
2018-03-19T15:33:11.905Z,7.57
2018-03-19T15:35:40.323Z,8.87
2018-03-19T15:38:08.774Z,15.67
2018-03-19T15:40:37.240Z,6.90
2018-03-19T15:43:05.692Z,11.57
2018-03-19T15:45:34.105Z,6.27
2018-03-19T15:48:02.513Z,9.20
2018-03-19T15:50:31.008Z,5.73
2018-03-19T15:52:59.428Z,11.70
2018-03-19T15:55:28.040Z,6.47
2018-03-19T15:57:56.470Z,8.00
2018-03-19T16:00:24.882Z,7.00
2018-03-19T16:02:53.635Z,7.43
2018-03-19T16:05:22.152Z,7.30
2018-03-19T16:07:50.604Z,9.30
2018-03-19T16:10:19.368Z,5.60
2018-03-19T16:12:47.807Z,10.90
2018-03-19T16:15:16.327Z,7.43
2018-03-19T16:17:44.849Z,5.97
2018-03-19T16:20:13.433Z,7.33
2018-03-19T16:22:41.870Z,8.40
2018-03-19T16:25:10.281Z,7.90
2018-03-19T16:27:39.232Z,7.37
2018-03-19T16:30:07.869Z,6.57
2018-03-19T16:32:36.339Z,5.93
2018-03-19T16:35:04.720Z,6.30
2018-03-19T16:37:33.292Z,10.10
2018-03-19T16:40:01.822Z,6.70
2018-03-19T16:42:30.340Z,9.93
2018-03-19T16:44:58.987Z,12.20
2018-03-19T16:47:27.588Z,15.00
2018-03-19T16:49:55.954Z,7.83
2018-03-19T16:52:24.456Z,7.50
2018-03-19T16:54:52.974Z,19.77
2018-03-19T16:57:21.443Z,6.60
2018-03-19T16:59:49.812Z,12.80
2018-03-19T17:02:18.286Z,13.83
2018-03-19T17:04:46.679Z,9.67
2018-03-19T17:07:15.161Z,27.00
2018-03-19T17:09:43.612Z,8.17
2018-03-19T17:12:11.983Z,8.30
2018-03-19T17:14:40.415Z,12.13
2018-03-19T17:17:08.923Z,6.57
2018-03-19T17:19:37.404Z,10.70
2018-03-19T17:22:05.811Z,8.77
2018-03-19T17:24:34.324Z,6.30
2018-03-19T17:27:02.699Z,8.53
2018-03-19T17:29:31.305Z,7.50
2018-03-19T17:31:59.984Z,7.80
2018-03-19T17:34:28.343Z,27.57
2018-03-19T17:36:56.740Z,9.53
2018-03-19T17:39:25.176Z,8.07
2018-03-19T17:41:53.648Z,10.33
2018-03-19T17:44:22.164Z,7.80
2018-03-19T17:46:50.628Z,7.03
2018-03-19T17:49:18.993Z,8.13
2018-03-19T17:51:47.458Z,10.10
2018-03-19T17:54:15.900Z,7.93
2018-03-19T17:56:44.743Z,6.50
2018-03-19T17:59:13.157Z,18.67
2018-03-19T18:01:41.805Z,7.73
2018-03-19T18:04:10.235Z,8.17
2018-03-19T18:06:38.678Z,7.63
2018-03-19T18:09:07.077Z,8.90
2018-03-19T18:11:35.581Z,7.30
2018-03-19T18:14:03.977Z,10.10
2018-03-19T18:16:32.369Z,7.40
2018-03-19T18:19:00.875Z,10.13
2018-03-19T18:21:29.280Z,7.70
2018-03-19T18:23:57.733Z,12.20
2018-03-19T18:26:26.124Z,11.07
2018-03-19T18:28:54.534Z,10.87
2018-03-19T18:31:23.105Z,11.20
2018-03-19T18:33:51.835Z,12.00
2018-03-19T18:36:20.218Z,11.70
2018-03-19T18:38:48.738Z,9.00
2018-03-19T18:41:17.271Z,8.17
2018-03-19T18:43:45.747Z,8.30
2018-03-19T18:46:14.160Z,11.83
2018-03-19T18:48:42.750Z,14.13
2018-03-19T18:51:11.112Z,14.63
2018-03-19T18:53:39.688Z,14.97
2018-03-19T18:56:08.070Z,15.50
2018-03-19T18:58:36.705Z,22.33
2018-03-19T19:01:05.177Z,11.00
2018-03-19T19:03:33.620Z,11.87
2018-03-19T19:06:01.991Z,12.37
2018-03-19T19:08:30.425Z,10.57
2018-03-19T19:10:59.063Z,12.80
2018-03-19T19:13:27.468Z,10.13
2018-03-19T19:15:55.934Z,9.83
2018-03-19T19:18:24.326Z,13.73
2018-03-19T19:20:53.240Z,8.67
2018-03-19T19:23:21.662Z,8.67
2018-03-19T19:25:50.143Z,23.87
2018-03-19T19:28:18.579Z,17.17
2018-03-19T19:30:47.318Z,10.20
2018-03-19T19:33:15.680Z,12.43
2018-03-19T19:35:44.040Z,17.27
2018-03-19T19:38:12.657Z,12.30
2018-03-19T19:40:41.392Z,13.40
2018-03-19T19:43:10.066Z,38.23
2018-03-19T19:45:38.461Z,14.87
2018-03-19T19:48:06.883Z,14.83
2018-03-19T19:50:35.388Z,20.90
2018-03-19T19:53:03.872Z,25.60
2018-03-19T19:55:32.368Z,16.33
2018-03-19T19:58:01.032Z,19.13
2018-03-19T20:00:29.531Z,16.77
2018-03-19T20:02:57.948Z,20.20
2018-03-19T20:05:26.318Z,14.90
2018-03-19T20:07:54.715Z,12.00
2018-03-19T20:10:23.705Z,13.67
2018-03-19T20:12:52.415Z,10.63
2018-03-19T20:15:21.293Z,19.67
2018-03-19T20:17:49.863Z,17.00
2018-03-19T20:20:18.331Z,14.13
2018-03-19T20:22:46.756Z,24.13
2018-03-19T20:25:15.386Z,18.33
2018-03-19T20:27:43.759Z,16.07
2018-03-19T20:30:12.147Z,15.90
2018-03-19T20:32:40.567Z,18.57
2018-03-19T20:35:09.136Z,26.70
2018-03-19T20:37:37.615Z,24.03
2018-03-19T20:40:06.063Z,22.17
2018-03-19T20:42:34.905Z,19.47
2018-03-19T20:45:03.668Z,32.80
2018-03-19T20:47:32.042Z,24.20
2018-03-19T20:50:00.864Z,26.67
2018-03-19T20:52:29.313Z,23.80
2018-03-19T20:54:57.836Z,19.03
2018-03-19T20:57:26.328Z,36.10
2018-03-19T20:59:54.946Z,23.43
2018-03-19T21:02:23.337Z,31.87
2018-03-19T21:04:51.768Z,20.50
2018-03-19T21:07:20.142Z,22.73
2018-03-19T21:09:48.542Z,21.60
2018-03-19T21:12:16.925Z,23.00
2018-03-19T21:14:45.469Z,21.53
2018-03-19T21:17:14.056Z,18.87
2018-03-19T21:19:42.464Z,16.43
2018-03-19T21:22:11.073Z,32.13
2018-03-19T21:24:39.497Z,20.73
2018-03-19T21:27:07.920Z,24.03
2018-03-19T21:29:36.683Z,15.47
2018-03-19T21:32:05.159Z,17.33
2018-03-19T21:34:33.593Z,21.50
2018-03-19T21:37:01.957Z,19.50
2018-03-19T21:39:30.374Z,18.80
2018-03-19T21:41:58.952Z,25.33
2018-03-19T21:44:27.426Z,18.60
2018-03-19T21:46:56.124Z,26.03
2018-03-19T21:49:24.735Z,21.87
2018-03-19T21:51:53.189Z,33.40
2018-03-19T21:54:21.807Z,31.83
2018-03-19T21:56:50.626Z,26.93
2018-03-19T21:59:19.028Z,26.87
2018-03-19T22:01:47.578Z,24.33
2018-03-19T22:04:16.064Z,19.53
2018-03-19T22:06:44.717Z,15.27
2018-03-19T22:09:13.351Z,15.73
2018-03-19T22:11:41.815Z,15.73
2018-03-19T22:14:10.268Z,20.00
2018-03-19T22:16:38.726Z,18.67
2018-03-19T22:19:07.148Z,21.67
2018-03-19T22:21:35.726Z,14.93
2018-03-19T22:24:04.378Z,16.17
2018-03-19T22:26:33.106Z,25.50
2018-03-19T22:29:01.579Z,24.37
2018-03-19T22:31:30.188Z,25.60
2018-03-19T22:33:58.576Z,33.03
2018-03-19T22:36:27.244Z,18.93
2018-03-19T22:38:55.910Z,26.47
2018-03-19T22:41:24.393Z,22.00
2018-03-19T22:43:53.067Z,25.30
2018-03-19T22:46:21.523Z,20.80
2018-03-19T22:48:50.270Z,27.63
2018-03-19T22:51:18.872Z,28.33
2018-03-19T22:53:47.335Z,20.37
2018-03-19T22:56:16.015Z,26.50
2018-03-19T22:58:44.680Z,19.13
2018-03-19T23:01:13.268Z,17.30
2018-03-19T23:03:41.691Z,21.13
2018-03-19T23:06:10.180Z,19.27
2018-03-19T23:08:38.694Z,26.87
2018-03-19T23:11:07.090Z,30.73
2018-03-19T23:13:35.849Z,33.80
2018-03-19T23:16:04.251Z,15.30
2018-03-19T23:18:32.681Z,21.03
2018-03-19T23:21:01.252Z,16.23
2018-03-19T23:23:29.872Z,23.10
2018-03-19T23:25:58.384Z,24.83
2018-03-19T23:28:26.851Z,25.17
2018-03-19T23:30:55.277Z,26.57
2018-03-19T23:33:23.663Z,29.87
2018-03-19T23:35:52.208Z,30.13
2018-03-19T23:38:20.754Z,33.03
2018-03-19T23:40:49.160Z,26.27
2018-03-19T23:43:17.566Z,33.60
2018-03-19T23:45:46.011Z,35.33
2018-03-19T23:48:14.447Z,26.03
2018-03-19T23:50:42.921Z,32.37
2018-03-19T23:53:11.388Z,34.80
2018-03-19T23:55:40.728Z,30.93
2018-03-19T23:58:09.584Z,36.43
